sensor_id;sensor_type;location;lat;lon;timestamp;pressure;altitude;pressure_sealevel;temperature;humidity
63097;BME280;49185;42.320;23.198;2023-05-11T00:01:42;95033.94;;;8.85;82.13
63097;BME280;49185;42.320;23.198;2023-05-11T00:04:07;95038.63;;;8.71;82.18
63097;BME280;49185;42.320;23.198;2023-05-11T00:06:33;95040.06;;;8.44;82.94
63097;BME280;49185;42.320;23.198;2023-05-11T00:08:58;95043.66;;;8.49;82.63
63097;BME280;49185;42.320;23.198;2023-05-11T00:11:24;95047.88;;;8.39;82.81
63097;BME280;49185;42.320;23.198;2023-05-11T00:13:49;95040.13;;;8.37;83.54
63097;BME280;49185;42.320;23.198;2023-05-11T00:16:14;95050.00;;;8.48;82.30
63097;BME280;49185;42.320;23.198;2023-05-11T00:18:40;95041.69;;;8.45;82.02
63097;BME280;49185;42.320;23.198;2023-05-11T00:21:05;95037.47;;;8.25;83.33
63097;BME280;49185;42.320;23.198;2023-05-11T00:23:31;95050.38;;;8.33;82.26
63097;BME280;49185;42.320;23.198;2023-05-11T00:25:56;95041.94;;;8.25;83.00
63097;BME280;49185;42.320;23.198;2023-05-11T00:28:21;95043.53;;;8.14;82.94
63097;BME280;49185;42.320;23.198;2023-05-11T00:30:47;95039.16;;;8.20;82.44
63097;BME280;49185;42.320;23.198;2023-05-11T00:33:12;95046.41;;;8.12;83.07
63097;BME280;49185;42.320;23.198;2023-05-11T00:35:38;95054.13;;;8.14;82.39
63097;BME280;49185;42.320;23.198;2023-05-11T00:38:03;95042.22;;;8.05;83.49
63097;BME280;49185;42.320;23.198;2023-05-11T00:40:32;95035.84;;;7.94;82.71
63097;BME280;49185;42.320;23.198;2023-05-11T00:42:58;95042.38;;;7.91;83.55
63097;BME280;49185;42.320;23.198;2023-05-11T00:45:23;95041.59;;;7.91;82.92
63097;BME280;49185;42.320;23.198;2023-05-11T00:47:49;95040.00;;;7.90;83.12
63097;BME280;49185;42.320;23.198;2023-05-11T00:50:14;95046.25;;;8.07;82.48
63097;BME280;49185;42.320;23.198;2023-05-11T00:52:40;95040.03;;;8.02;82.49
63097;BME280;49185;42.320;23.198;2023-05-11T00:55:06;95043.00;;;7.93;83.11
63097;BME280;49185;42.320;23.198;2023-05-11T00:57:32;95039.66;;;7.98;82.37
63097;BME280;49185;42.320;23.198;2023-05-11T01:00:01;95048.19;;;8.00;81.91
63097;BME280;49185;42.320;23.198;2023-05-11T01:02:26;95043.78;;;7.94;82.71
63097;BME280;49185;42.320;23.198;2023-05-11T01:04:51;95041.38;;;7.92;82.57
63097;BME280;49185;42.320;23.198;2023-05-11T01:10:18;95051.41;;;7.72;83.13
63097;BME280;49185;42.320;23.198;2023-05-11T01:15:24;95041.63;;;7.72;82.61
63097;BME280;49185;42.320;23.198;2023-05-11T01:18:05;95049.47;;;7.79;82.65
63097;BME280;49185;42.320;23.198;2023-05-11T01:20:33;95053.16;;;7.59;82.79
63097;BME280;49185;42.320;23.198;2023-05-11T01:31:29;95050.22;;;7.86;81.80
63097;BME280;49185;42.320;23.198;2023-05-11T01:33:58;95051.59;;;7.89;80.98
63097;BME280;49185;42.320;23.198;2023-05-11T01:36:29;95047.94;;;7.90;81.01
63097;BME280;49185;42.320;23.198;2023-05-11T01:39:00;95053.75;;;7.80;81.09
63097;BME280;49185;42.320;23.198;2023-05-11T01:41:27;95047.47;;;8.23;79.56
63097;BME280;49185;42.320;23.198;2023-05-11T01:43:56;95044.53;;;8.01;80.13
63097;BME280;49185;42.320;23.198;2023-05-11T01:46:25;95041.63;;;8.63;78.25
63097;BME280;49185;42.320;23.198;2023-05-11T01:48:54;95047.16;;;8.31;78.83
63097;BME280;49185;42.320;23.198;2023-05-11T01:51:23;95041.31;;;8.11;79.31
63097;BME280;49185;42.320;23.198;2023-05-11T01:53:50;95044.97;;;7.98;80.29
63097;BME280;49185;42.320;23.198;2023-05-11T01:56:20;95049.41;;;8.16;78.76
63097;BME280;49185;42.320;23.198;2023-05-11T01:58:47;95039.22;;;8.01;79.72
63097;BME280;49185;42.320;23.198;2023-05-11T02:01:15;95041.81;;;8.20;78.37
63097;BME280;49185;42.320;23.198;2023-05-11T02:03:41;95044.69;;;7.88;80.13
63097;BME280;49185;42.320;23.198;2023-05-11T02:06:09;95031.06;;;8.03;79.46
63097;BME280;49185;42.320;23.198;2023-05-11T02:08:37;95040.25;;;8.00;80.10
63097;BME280;49185;42.320;23.198;2023-05-11T02:11:05;95037.16;;;8.03;79.16
63097;BME280;49185;42.320;23.198;2023-05-11T02:13:33;95033.28;;;7.87;79.75
63097;BME280;49185;42.320;23.198;2023-05-11T02:16:01;95028.56;;;7.89;79.59
63097;BME280;49185;42.320;23.198;2023-05-11T02:18:28;95031.72;;;7.98;79.39
63097;BME280;49185;42.320;23.198;2023-05-11T02:20:55;95031.19;;;8.08;79.02
63097;BME280;49185;42.320;23.198;2023-05-11T02:23:22;95036.38;;;7.84;79.71
63097;BME280;49185;42.320;23.198;2023-05-11T02:25:48;95036.41;;;8.26;77.71
63097;BME280;49185;42.320;23.198;2023-05-11T02:28:15;95039.38;;;7.88;78.88
63097;BME280;49185;42.320;23.198;2023-05-11T02:30:47;95026.81;;;7.83;80.09
63097;BME280;49185;42.320;23.198;2023-05-11T02:33:37;95030.34;;;7.95;78.82
63097;BME280;49185;42.320;23.198;2023-05-11T02:36:04;95031.22;;;7.89;79.66
63097;BME280;49185;42.320;23.198;2023-05-11T02:38:34;95033.09;;;7.70;80.16
63097;BME280;49185;42.320;23.198;2023-05-11T02:41:05;95040.56;;;7.92;80.12
63097;BME280;49185;42.320;23.198;2023-05-11T02:43:35;95039.03;;;7.84;80.66
63097;BME280;49185;42.320;23.198;2023-05-11T02:46:09;95040.81;;;7.53;81.92
63097;BME280;49185;42.320;23.198;2023-05-11T02:48:42;95036.28;;;7.42;82.35
63097;BME280;49185;42.320;23.198;2023-05-11T02:51:10;95034.78;;;7.65;81.16
63097;BME280;49185;42.320;23.198;2023-05-11T02:53:39;95032.31;;;7.51;81.49
63097;BME280;49185;42.320;23.198;2023-05-11T02:56:06;95027.31;;;7.62;81.48
63097;BME280;49185;42.320;23.198;2023-05-11T02:58:32;95032.44;;;7.56;81.89
63097;BME280;49185;42.320;23.198;2023-05-11T03:00:58;95032.81;;;7.41;82.21
63097;BME280;49185;42.320;23.198;2023-05-11T03:03:25;95022.59;;;7.45;81.44
63097;BME280;49185;42.320;23.198;2023-05-11T03:05:50;95030.25;;;7.35;82.43
63097;BME280;49185;42.320;23.198;2023-05-11T03:08:16;95026.13;;;7.39;82.04
63097;BME280;49185;42.320;23.198;2023-05-11T03:10:42;95028.19;;;7.37;82.47
63097;BME280;49185;42.320;23.198;2023-05-11T03:13:08;95023.25;;;7.40;82.08
63097;BME280;49185;42.320;23.198;2023-05-11T03:15:35;95035.63;;;7.28;82.47
63097;BME280;49185;42.320;23.198;2023-05-11T03:18:04;95032.75;;;7.30;82.56
63097;BME280;49185;42.320;23.198;2023-05-11T03:20:30;95040.59;;;7.55;82.62
63097;BME280;49185;42.320;23.198;2023-05-11T03:22:57;95025.81;;;7.29;82.13
63097;BME280;49185;42.320;23.198;2023-05-11T03:25:23;95036.19;;;7.30;82.56
63097;BME280;49185;42.320;23.198;2023-05-11T03:27:49;95032.59;;;7.25;82.94
63097;BME280;49185;42.320;23.198;2023-05-11T03:30:15;95025.69;;;7.23;83.35
63097;BME280;49185;42.320;23.198;2023-05-11T03:32:41;95032.53;;;7.31;82.85
63097;BME280;49185;42.320;23.198;2023-05-11T03:35:07;95039.50;;;7.26;82.70
63097;BME280;49185;42.320;23.198;2023-05-11T03:37:35;95029.13;;;7.24;82.92
63097;BME280;49185;42.320;23.198;2023-05-11T03:40:02;95034.13;;;7.14;83.57
63097;BME280;49185;42.320;23.198;2023-05-11T03:42:29;95032.28;;;6.96;83.94
63097;BME280;49185;42.320;23.198;2023-05-11T03:44:58;95047.41;;;7.07;84.49
63097;BME280;49185;42.320;23.198;2023-05-11T03:47:25;95048.44;;;7.06;84.09
63097;BME280;49185;42.320;23.198;2023-05-11T03:49:52;95043.63;;;7.21;83.18
63097;BME280;49185;42.320;23.198;2023-05-11T03:52:18;95049.84;;;7.27;83.33
63097;BME280;49185;42.320;23.198;2023-05-11T03:54:44;95039.72;;;7.24;83.75
63097;BME280;49185;42.320;23.198;2023-05-11T03:57:09;95042.38;;;7.43;82.22
63097;BME280;49185;42.320;23.198;2023-05-11T03:59:35;95043.84;;;7.57;81.72
63097;BME280;49185;42.320;23.198;2023-05-11T04:02:01;95041.69;;;7.29;82.76
63097;BME280;49185;42.320;23.198;2023-05-11T04:04:28;95040.97;;;7.40;81.84
63097;BME280;49185;42.320;23.198;2023-05-11T04:06:53;95046.50;;;7.57;81.49
63097;BME280;49185;42.320;23.198;2023-05-11T04:09:19;95055.25;;;7.39;82.63
63097;BME280;49185;42.320;23.198;2023-05-11T04:11:44;95043.91;;;7.50;81.82
63097;BME280;49185;42.320;23.198;2023-05-11T04:14:09;95048.03;;;7.46;82.18
63097;BME280;49185;42.320;23.198;2023-05-11T04:16:35;95056.09;;;7.70;80.79
63097;BME280;49185;42.320;23.198;2023-05-11T04:19:00;95054.06;;;7.53;81.92
63097;BME280;49185;42.320;23.198;2023-05-11T04:21:26;95044.84;;;7.56;81.43
63097;BME280;49185;42.320;23.198;2023-05-11T04:23:51;95060.81;;;7.68;81.99
63097;BME280;49185;42.320;23.198;2023-05-11T04:26:17;95060.03;;;7.67;81.80
63097;BME280;49185;42.320;23.198;2023-05-11T04:28:42;95067.13;;;7.85;80.42
63097;BME280;49185;42.320;23.198;2023-05-11T04:31:08;95063.09;;;7.83;80.67
63097;BME280;49185;42.320;23.198;2023-05-11T04:33:33;95067.81;;;8.11;78.97
63097;BME280;49185;42.320;23.198;2023-05-11T04:35:58;95064.44;;;8.04;79.54
63097;BME280;49185;42.320;23.198;2023-05-11T04:38:24;95068.41;;;8.13;79.50
63097;BME280;49185;42.320;23.198;2023-05-11T04:40:49;95066.94;;;8.17;79.15
63097;BME280;49185;42.320;23.198;2023-05-11T04:43:15;95068.66;;;8.23;78.59
63097;BME280;49185;42.320;23.198;2023-05-11T04:45:41;95069.00;;;8.45;78.02
63097;BME280;49185;42.320;23.198;2023-05-11T04:48:11;95078.59;;;8.58;77.15
63097;BME280;49185;42.320;23.198;2023-05-11T04:50:36;95062.84;;;8.33;78.30
63097;BME280;49185;42.320;23.198;2023-05-11T04:53:01;95081.63;;;8.31;78.59
63097;BME280;49185;42.320;23.198;2023-05-11T04:55:27;95085.44;;;8.66;76.76
63097;BME280;49185;42.320;23.198;2023-05-11T04:57:52;95092.44;;;8.48;77.58
63097;BME280;49185;42.320;23.198;2023-05-11T05:00:18;95087.16;;;8.60;76.65
63097;BME280;49185;42.320;23.198;2023-05-11T05:02:44;95088.06;;;8.54;76.59
63097;BME280;49185;42.320;23.198;2023-05-11T05:05:09;95086.31;;;8.48;77.38
63097;BME280;49185;42.320;23.198;2023-05-11T05:07:34;95091.22;;;8.74;76.46
63097;BME280;49185;42.320;23.198;2023-05-11T05:10:00;95086.91;;;8.50;77.29
63097;BME280;49185;42.320;23.198;2023-05-11T05:12:25;95085.69;;;8.34;78.11
63097;BME280;49185;42.320;23.198;2023-05-11T05:14:51;95087.16;;;8.60;77.41
63097;BME280;49185;42.320;23.198;2023-05-11T05:17:16;95095.66;;;8.50;77.68
63097;BME280;49185;42.320;23.198;2023-05-11T05:19:42;95102.56;;;8.51;78.00
63097;BME280;49185;42.320;23.198;2023-05-11T05:22:07;95096.47;;;8.51;77.71
63097;BME280;49185;42.320;23.198;2023-05-11T05:24:32;95089.78;;;8.60;77.38
63097;BME280;49185;42.320;23.198;2023-05-11T05:26:58;95098.59;;;8.72;77.00
63097;BME280;49185;42.320;23.198;2023-05-11T05:29:23;95102.53;;;8.70;76.97
63097;BME280;49185;42.320;23.198;2023-05-11T05:31:49;95098.94;;;8.76;76.42
63097;BME280;49185;42.320;23.198;2023-05-11T05:34:14;95111.38;;;8.64;76.42
63097;BME280;49185;42.320;23.198;2023-05-11T05:36:40;95106.19;;;8.69;76.89
63097;BME280;49185;42.320;23.198;2023-05-11T05:39:05;95105.44;;;8.80;76.16
63097;BME280;49185;42.320;23.198;2023-05-11T05:41:31;95100.66;;;8.70;76.98
63097;BME280;49185;42.320;23.198;2023-05-11T05:43:56;95100.22;;;8.73;76.13
63097;BME280;49185;42.320;23.198;2023-05-11T05:46:22;95104.25;;;8.76;76.21
63097;BME280;49185;42.320;23.198;2023-05-11T05:48:47;95093.00;;;9.04;74.33
63097;BME280;49185;42.320;23.198;2023-05-11T05:51:12;95094.97;;;9.21;73.94
63097;BME280;49185;42.320;23.198;2023-05-11T05:53:38;95105.13;;;9.47;72.69
63097;BME280;49185;42.320;23.198;2023-05-11T05:56:03;95099.91;;;9.64;72.31
63097;BME280;49185;42.320;23.198;2023-05-11T05:58:29;95099.81;;;9.47;72.66
63097;BME280;49185;42.320;23.198;2023-05-11T06:00:54;95100.34;;;9.85;72.20
63097;BME280;49185;42.320;23.198;2023-05-11T06:03:20;95106.31;;;10.04;70.83
63097;BME280;49185;42.320;23.198;2023-05-11T06:05:45;95108.44;;;9.78;71.40
63097;BME280;49185;42.320;23.198;2023-05-11T06:08:10;95119.91;;;9.55;72.06
63097;BME280;49185;42.320;23.198;2023-05-11T06:10:36;95117.13;;;9.62;71.79
63097;BME280;49185;42.320;23.198;2023-05-11T06:13:02;95105.47;;;9.27;73.96
63097;BME280;49185;42.320;23.198;2023-05-11T06:15:27;95112.63;;;9.62;72.43
63097;BME280;49185;42.320;23.198;2023-05-11T06:17:53;95109.03;;;9.57;72.32
63097;BME280;49185;42.320;23.198;2023-05-11T06:20:18;95115.97;;;9.34;73.90
63097;BME280;49185;42.320;23.198;2023-05-11T06:22:44;95105.66;;;9.73;71.71
63097;BME280;49185;42.320;23.198;2023-05-11T06:25:09;95114.69;;;9.13;72.87
63097;BME280;49185;42.320;23.198;2023-05-11T06:27:34;95115.63;;;9.19;74.51
63097;BME280;49185;42.320;23.198;2023-05-11T06:30:00;95121.06;;;9.36;73.54
63097;BME280;49185;42.320;23.198;2023-05-11T06:32:25;95121.84;;;9.36;73.45
63097;BME280;49185;42.320;23.198;2023-05-11T06:34:51;95118.53;;;9.41;73.49
63097;BME280;49185;42.320;23.198;2023-05-11T06:37:16;95118.19;;;9.37;72.75
63097;BME280;49185;42.320;23.198;2023-05-11T06:39:42;95118.50;;;9.29;74.22
63097;BME280;49185;42.320;23.198;2023-05-11T06:42:07;95120.25;;;9.35;73.89
63097;BME280;49185;42.320;23.198;2023-05-11T06:44:32;95117.94;;;9.50;73.09
63097;BME280;49185;42.320;23.198;2023-05-11T06:46:58;95113.78;;;9.43;73.31
63097;BME280;49185;42.320;23.198;2023-05-11T06:49:23;95116.09;;;9.39;73.51
63097;BME280;49185;42.320;23.198;2023-05-11T06:51:49;95112.38;;;9.17;73.64
63097;BME280;49185;42.320;23.198;2023-05-11T06:54:17;95112.03;;;9.48;72.68
63097;BME280;49185;42.320;23.198;2023-05-11T06:56:42;95114.59;;;9.43;72.82
63097;BME280;49185;42.320;23.198;2023-05-11T06:59:08;95116.91;;;9.52;73.31
63097;BME280;49185;42.320;23.198;2023-05-11T07:01:33;95122.38;;;9.97;71.51
63097;BME280;49185;42.320;23.198;2023-05-11T07:03:59;95110.84;;;9.92;71.37
63097;BME280;49185;42.320;23.198;2023-05-11T07:06:24;95107.22;;;10.10;71.35
63097;BME280;49185;42.320;23.198;2023-05-11T07:08:49;95107.81;;;10.40;70.37
63097;BME280;49185;42.320;23.198;2023-05-11T07:11:15;95114.28;;;10.44;70.33
63097;BME280;49185;42.320;23.198;2023-05-11T07:13:40;95114.88;;;10.63;69.55
63097;BME280;49185;42.320;23.198;2023-05-11T07:16:06;95113.34;;;10.51;69.50
63097;BME280;49185;42.320;23.198;2023-05-11T07:18:31;95111.56;;;10.56;69.22
63097;BME280;49185;42.320;23.198;2023-05-11T07:20:56;95113.75;;;10.59;69.40
63097;BME280;49185;42.320;23.198;2023-05-11T07:23:22;95118.88;;;11.12;69.53
63097;BME280;49185;42.320;23.198;2023-05-11T07:25:47;95122.53;;;11.06;69.00
63097;BME280;49185;42.320;23.198;2023-05-11T07:28:13;95124.16;;;10.61;68.67
63097;BME280;49185;42.320;23.198;2023-05-11T07:30:38;95124.53;;;10.53;69.82
63097;BME280;49185;42.320;23.198;2023-05-11T07:33:04;95128.19;;;10.35;70.80
63097;BME280;49185;42.320;23.198;2023-05-11T07:35:29;95134.50;;;9.93;72.43
63097;BME280;49185;42.320;23.198;2023-05-11T07:37:55;95131.91;;;9.69;73.40
63097;BME280;49185;42.320;23.198;2023-05-11T07:40:20;95129.06;;;10.00;72.74
63097;BME280;49185;42.320;23.198;2023-05-11T07:42:46;95128.81;;;10.13;71.96
63097;BME280;49185;42.320;23.198;2023-05-11T07:45:11;95133.81;;;9.98;72.91
63097;BME280;49185;42.320;23.198;2023-05-11T07:47:36;95132.47;;;9.83;74.13
63097;BME280;49185;42.320;23.198;2023-05-11T07:50:02;95127.63;;;9.68;74.50
63097;BME280;49185;42.320;23.198;2023-05-11T07:52:28;95131.44;;;9.73;73.40
63097;BME280;49185;42.320;23.198;2023-05-11T07:54:53;95140.09;;;9.68;74.23
63097;BME280;49185;42.320;23.198;2023-05-11T07:57:18;95139.97;;;9.63;74.04
63097;BME280;49185;42.320;23.198;2023-05-11T07:59:44;95139.28;;;9.56;74.94
63097;BME280;49185;42.320;23.198;2023-05-11T08:02:09;95141.38;;;9.30;76.51
63097;BME280;49185;42.320;23.198;2023-05-11T08:04:35;95146.91;;;9.17;76.55
63097;BME280;49185;42.320;23.198;2023-05-11T08:07:00;95138.03;;;9.23;76.84
63097;BME280;49185;42.320;23.198;2023-05-11T08:09:26;95139.41;;;9.37;75.60
63097;BME280;49185;42.320;23.198;2023-05-11T08:11:51;95136.19;;;9.23;76.03
63097;BME280;49185;42.320;23.198;2023-05-11T08:14:17;95139.06;;;9.45;75.73
63097;BME280;49185;42.320;23.198;2023-05-11T08:16:42;95130.19;;;9.52;75.91
63097;BME280;49185;42.320;23.198;2023-05-11T08:19:07;95132.13;;;9.68;74.67
63097;BME280;49185;42.320;23.198;2023-05-11T08:21:33;95131.78;;;9.76;74.65
63097;BME280;49185;42.320;23.198;2023-05-11T08:23:58;95124.66;;;10.05;73.45
63097;BME280;49185;42.320;23.198;2023-05-11T08:26:24;95124.81;;;9.99;73.42
63097;BME280;49185;42.320;23.198;2023-05-11T08:28:49;95125.31;;;9.60;74.12
63097;BME280;49185;42.320;23.198;2023-05-11T08:31:14;95131.56;;;9.78;74.36
63097;BME280;49185;42.320;23.198;2023-05-11T08:33:40;95134.44;;;9.64;74.96
63097;BME280;49185;42.320;23.198;2023-05-11T08:36:06;95137.66;;;9.66;74.45
63097;BME280;49185;42.320;23.198;2023-05-11T08:38:31;95134.09;;;9.49;75.61
63097;BME280;49185;42.320;23.198;2023-05-11T08:40:56;95133.16;;;9.43;76.35
63097;BME280;49185;42.320;23.198;2023-05-11T08:43:25;95143.22;;;9.65;75.71
63097;BME280;49185;42.320;23.198;2023-05-11T08:45:54;95136.06;;;9.18;77.38
63097;BME280;49185;42.320;23.198;2023-05-11T08:48:22;95140.56;;;9.18;77.33
63097;BME280;49185;42.320;23.198;2023-05-11T08:50:48;95137.81;;;9.24;77.46
63097;BME280;49185;42.320;23.198;2023-05-11T08:53:13;95137.34;;;9.16;77.12
63097;BME280;49185;42.320;23.198;2023-05-11T08:55:39;95142.75;;;9.21;77.99
63097;BME280;49185;42.320;23.198;2023-05-11T08:58:07;95137.56;;;9.49;77.41
63097;BME280;49185;42.320;23.198;2023-05-11T09:00:33;95132.03;;;9.39;77.24
63097;BME280;49185;42.320;23.198;2023-05-11T09:02:59;95137.13;;;9.53;76.57
63097;BME280;49185;42.320;23.198;2023-05-11T09:05:25;95115.94;;;9.81;75.57
63097;BME280;49185;42.320;23.198;2023-05-11T09:07:52;95131.22;;;9.50;76.57
63097;BME280;49185;42.320;23.198;2023-05-11T09:10:19;95114.38;;;9.33;76.72
63097;BME280;49185;42.320;23.198;2023-05-11T09:12:45;95121.38;;;9.63;75.82
63097;BME280;49185;42.320;23.198;2023-05-11T09:15:10;95118.22;;;9.89;74.50
63097;BME280;49185;42.320;23.198;2023-05-11T09:17:36;95114.88;;;9.82;75.21
63097;BME280;49185;42.320;23.198;2023-05-11T09:20:04;95113.69;;;10.02;74.51
63097;BME280;49185;42.320;23.198;2023-05-11T09:22:39;95117.34;;;10.24;73.39
63097;BME280;49185;42.320;23.198;2023-05-11T09:25:05;95108.69;;;10.17;73.64
63097;BME280;49185;42.320;23.198;2023-05-11T09:27:31;95113.28;;;10.34;73.83
63097;BME280;49185;42.320;23.198;2023-05-11T09:30:09;95112.25;;;10.35;73.46
63097;BME280;49185;42.320;23.198;2023-05-11T09:35:33;95099.25;;;10.50;72.98
63097;BME280;49185;42.320;23.198;2023-05-11T09:38:10;95097.50;;;10.44;72.35
63097;BME280;49185;42.320;23.198;2023-05-11T09:40:40;95092.75;;;10.75;71.29
63097;BME280;49185;42.320;23.198;2023-05-11T09:43:22;95081.28;;;11.08;69.97
63097;BME280;49185;42.320;23.198;2023-05-11T09:45:49;95087.44;;;11.65;68.71
63097;BME280;49185;42.320;23.198;2023-05-11T09:50:41;95070.19;;;12.66;65.26
63097;BME280;49185;42.320;23.198;2023-05-11T09:53:07;95077.66;;;12.37;65.21
63097;BME280;49185;42.320;23.198;2023-05-11T09:55:32;95076.69;;;12.48;66.17
63097;BME280;49185;42.320;23.198;2023-05-11T09:57:58;95072.00;;;13.57;63.55
63097;BME280;49185;42.320;23.198;2023-05-11T10:00:24;95063.88;;;13.90;61.67
63097;BME280;49185;42.320;23.198;2023-05-11T10:03:04;95060.78;;;14.18;59.61
63097;BME280;49185;42.320;23.198;2023-05-11T10:05:31;95063.31;;;14.71;58.99
63097;BME280;49185;42.320;23.198;2023-05-11T10:08:02;95065.09;;;13.66;60.28
63097;BME280;49185;42.320;23.198;2023-05-11T10:10:29;95071.34;;;13.88;60.94
63097;BME280;49185;42.320;23.198;2023-05-11T10:12:56;95064.38;;;13.81;61.01
63097;BME280;49185;42.320;23.198;2023-05-11T10:15:23;95061.22;;;13.95;60.48
63097;BME280;49185;42.320;23.198;2023-05-11T10:17:48;95063.22;;;14.30;59.44
63097;BME280;49185;42.320;23.198;2023-05-11T10:20:14;95062.38;;;14.19;59.73
63097;BME280;49185;42.320;23.198;2023-05-11T10:22:40;95067.69;;;13.99;59.83
63097;BME280;49185;42.320;23.198;2023-05-11T10:25:07;95076.28;;;14.11;59.43
63097;BME280;49185;42.320;23.198;2023-05-11T10:27:33;95078.09;;;14.89;57.37
63097;BME280;49185;42.320;23.198;2023-05-11T10:29:59;95079.28;;;13.72;60.24
63097;BME280;49185;42.320;23.198;2023-05-11T10:32:26;95070.19;;;13.30;61.15
63097;BME280;49185;42.320;23.198;2023-05-11T10:34:54;95079.16;;;13.94;60.12
63097;BME280;49185;42.320;23.198;2023-05-11T10:37:20;95071.53;;;14.34;58.84
63097;BME280;49185;42.320;23.198;2023-05-11T10:39:47;95069.19;;;13.84;60.62
63097;BME280;49185;42.320;23.198;2023-05-11T10:44:54;95068.44;;;14.63;57.60
63097;BME280;49185;42.320;23.198;2023-05-11T10:48:03;95056.31;;;13.71;59.18
63097;BME280;49185;42.320;23.198;2023-05-11T10:59:38;95055.56;;;14.75;56.92
63097;BME280;49185;42.320;23.198;2023-05-11T11:01:57;95060.94;;;15.06;55.52
63097;BME280;49185;42.320;23.198;2023-05-11T11:04:23;95061.53;;;16.14;54.24
63097;BME280;49185;42.320;23.198;2023-05-11T11:07:03;95062.25;;;15.44;54.46
63097;BME280;49185;42.320;23.198;2023-05-11T11:12:13;95053.28;;;14.15;58.21
63097;BME280;49185;42.320;23.198;2023-05-11T11:14:56;95054.66;;;13.65;60.43
63097;BME280;49185;42.320;23.198;2023-05-11T11:17:24;95051.75;;;13.72;59.69
63097;BME280;49185;42.320;23.198;2023-05-11T11:19:50;95069.13;;;13.69;60.44
63097;BME280;49185;42.320;23.198;2023-05-11T11:30:20;95064.31;;;13.28;61.69
63097;BME280;49185;42.320;23.198;2023-05-11T11:32:47;95067.31;;;13.00;61.85
63097;BME280;49185;42.320;23.198;2023-05-11T11:38:14;95069.47;;;12.43;63.51
63097;BME280;49185;42.320;23.198;2023-05-11T11:40:42;95065.00;;;12.81;63.13
63097;BME280;49185;42.320;23.198;2023-05-11T11:43:23;95052.13;;;12.19;63.88
63097;BME280;49185;42.320;23.198;2023-05-11T11:45:57;95057.78;;;12.22;63.55
63097;BME280;49185;42.320;23.198;2023-05-11T11:48:29;95056.34;;;12.69;62.46
63097;BME280;49185;42.320;23.198;2023-05-11T11:51:13;95055.16;;;12.54;63.34
63097;BME280;49185;42.320;23.198;2023-05-11T11:56:08;95051.09;;;12.79;62.56
63097;BME280;49185;42.320;23.198;2023-05-11T11:58:57;95041.47;;;13.48;61.32
63097;BME280;49185;42.320;23.198;2023-05-11T12:01:28;95033.25;;;13.65;60.40
63097;BME280;49185;42.320;23.198;2023-05-11T12:04:15;95032.69;;;13.58;60.86
63097;BME280;49185;42.320;23.198;2023-05-11T12:06:43;95043.19;;;13.27;60.95
63097;BME280;49185;42.320;23.198;2023-05-11T12:09:09;95029.75;;;13.54;60.73
63097;BME280;49185;42.320;23.198;2023-05-11T12:11:36;95031.66;;;13.64;62.08
63097;BME280;49185;42.320;23.198;2023-05-11T12:14:03;95027.75;;;13.87;59.26
63097;BME280;49185;42.320;23.198;2023-05-11T12:16:29;95024.97;;;13.61;60.19
63097;BME280;49185;42.320;23.198;2023-05-11T12:18:56;95021.75;;;13.59;60.34
63097;BME280;49185;42.320;23.198;2023-05-11T12:21:27;95025.09;;;13.87;60.39
63097;BME280;49185;42.320;23.198;2023-05-11T12:23:54;95015.84;;;14.41;57.73
63097;BME280;49185;42.320;23.198;2023-05-11T12:26:21;95028.09;;;13.43;60.49
63097;BME280;49185;42.320;23.198;2023-05-11T12:28:50;95023.59;;;13.11;60.74
63097;BME280;49185;42.320;23.198;2023-05-11T12:31:16;95025.75;;;13.14;61.98
63097;BME280;49185;42.320;23.198;2023-05-11T12:33:47;95021.03;;;12.94;62.12
63097;BME280;49185;42.320;23.198;2023-05-11T12:36:14;95012.28;;;13.94;59.88
63097;BME280;49185;42.320;23.198;2023-05-11T12:38:44;95008.31;;;13.44;60.41
63097;BME280;49185;42.320;23.198;2023-05-11T12:41:10;95014.97;;;13.41;60.15
63097;BME280;49185;42.320;23.198;2023-05-11T12:43:42;95009.84;;;13.35;60.38
63097;BME280;49185;42.320;23.198;2023-05-11T12:46:08;95009.19;;;13.12;61.11
63097;BME280;49185;42.320;23.198;2023-05-11T12:48:34;95004.59;;;12.70;63.46
63097;BME280;49185;42.320;23.198;2023-05-11T12:50:59;94992.47;;;13.32;60.54
63097;BME280;49185;42.320;23.198;2023-05-11T12:53:25;95002.09;;;12.96;62.23
63097;BME280;49185;42.320;23.198;2023-05-11T12:55:57;94996.97;;;12.84;61.94
63097;BME280;49185;42.320;23.198;2023-05-11T12:58:23;94995.09;;;12.84;62.67
63097;BME280;49185;42.320;23.198;2023-05-11T13:00:54;94980.69;;;13.28;61.52
63097;BME280;49185;42.320;23.198;2023-05-11T13:03:24;94993.50;;;12.88;62.69
63097;BME280;49185;42.320;23.198;2023-05-11T13:05:50;94992.06;;;13.13;61.79
63097;BME280;49185;42.320;23.198;2023-05-11T13:08:18;94991.88;;;12.82;61.56
63097;BME280;49185;42.320;23.198;2023-05-11T13:10:44;94983.13;;;12.27;62.42
63097;BME280;49185;42.320;23.198;2023-05-11T13:13:09;94989.41;;;12.43;63.73
63097;BME280;49185;42.320;23.198;2023-05-11T13:15:49;94995.16;;;12.30;63.22
63097;BME280;49185;42.320;23.198;2023-05-11T13:18:15;94990.84;;;12.24;63.51
63097;BME280;49185;42.320;23.198;2023-05-11T13:20:41;94992.31;;;12.09;65.22
63097;BME280;49185;42.320;23.198;2023-05-11T13:23:14;94988.09;;;11.91;64.79
63097;BME280;49185;42.320;23.198;2023-05-11T13:28:13;94983.06;;;11.95;65.23
63097;BME280;49185;42.320;23.198;2023-05-11T13:30:38;94991.56;;;11.48;66.50
63097;BME280;49185;42.320;23.198;2023-05-11T13:33:04;94976.03;;;11.89;66.32
63097;BME280;49185;42.320;23.198;2023-05-11T13:35:29;94990.06;;;11.79;66.06
63097;BME280;49185;42.320;23.198;2023-05-11T13:37:55;94987.16;;;12.03;65.95
63097;BME280;49185;42.320;23.198;2023-05-11T13:40:20;94978.50;;;12.18;64.28
63097;BME280;49185;42.320;23.198;2023-05-11T13:42:45;94977.44;;;11.91;65.55
63097;BME280;49185;42.320;23.198;2023-05-11T13:45:11;94980.78;;;11.82;65.56
63097;BME280;49185;42.320;23.198;2023-05-11T13:47:36;94975.72;;;12.07;64.68